Time,TemperatureF,DewpointF,PressureIn,WindDirection,WindDirectionDegrees,WindSpeedMPH,WindSpeedGustMPH,Humidity,HourlyPrecipIn,Conditions,Clouds,dailyrainin,SoftwareType,DateUTC
2013-09-02 00:03:00,73.0,72.7,30.06,NE,45,0.0,0.0,99,0.00,,,0.57,pywws,2013-09-02 04:03:00,
2013-09-02 00:08:00,73.0,72.7,30.05,NE,45,0.0,0.0,99,0.00,,,0.00,pywws,2013-09-02 04:08:00,
2013-09-02 00:13:00,73.2,72.9,30.06,NE,45,0.0,0.0,99,0.00,,,0.00,pywws,2013-09-02 04:13:00,
2013-09-02 00:18:00,73.4,73.1,30.06,SE,135,0.0,0.0,99,0.00,,,0.00,pywws,2013-09-02 04:18:00,
2013-09-02 00:23:00,73.4,73.1,30.06,SE,135,0.0,0.0,99,0.00,,,0.00,pywws,2013-09-02 04:23:00,
2013-09-02 00:33:00,73.6,73.3,30.06,SE,135,0.0,0.0,99,0.00,,,0.00,pywws,2013-09-02 04:33:00,
2013-09-02 00:38:00,73.6,73.3,30.06,SE,135,0.0,0.0,99,0.00,,,0.00,pywws,2013-09-02 04:38:00,
2013-09-02 00:43:00,73.8,73.5,30.06,SE,135,0.0,0.0,99,0.00,,,0.00,pywws,2013-09-02 04:43:00,
2013-09-02 00:48:00,73.8,73.5,30.06,SE,135,0.0,0.0,99,0.00,,,0.00,pywws,2013-09-02 04:48:00,
2013-09-02 00:53:00,73.6,73.3,30.06,SE,135,0.0,0.0,99,0.00,,,0.00,pywws,2013-09-02 04:53:00,
2013-09-02 01:03:00,73.6,73.3,30.06,SE,135,0.0,0.0,99,0.00,,,0.00,pywws,2013-09-02 05:03:00,
2013-09-02 01:08:00,73.6,73.3,30.06,South,180,0.0,0.0,99,0.00,,,0.00,pywws,2013-09-02 05:08:00,
2013-09-02 01:13:00,73.6,73.3,30.06,SE,135,0.0,0.0,99,0.00,,,0.00,pywws,2013-09-02 05:13:00,
2013-09-02 01:18:00,73.6,73.3,30.06,SE,135,0.0,0.0,99,0.00,,,0.00,pywws,2013-09-02 05:18:00,
2013-09-02 01:23:00,73.6,73.3,30.06,SE,135,0.0,0.0,99,0.00,,,0.00,pywws,2013-09-02 05:23:00,
2013-09-02 01:33:00,73.4,73.1,30.06,SE,135,0.0,0.0,99,0.00,,,0.00,pywws,2013-09-02 05:33:00,
2013-09-02 01:38:00,73.2,72.9,30.06,SE,135,0.0,0.0,99,0.00,,,0.00,pywws,2013-09-02 05:38:00,
2013-09-02 01:43:00,73.2,72.9,30.06,SE,135,0.0,0.0,99,0.00,,,0.00,pywws,2013-09-02 05:43:00,
2013-09-02 01:48:00,73.0,72.7,30.06,SE,135,0.0,0.0,99,0.00,,,0.00,pywws,2013-09-02 05:48:00,
2013-09-02 01:53:00,73.0,72.7,30.06,SE,135,0.0,0.0,99,0.00,,,0.00,pywws,2013-09-02 05:53:00,
2013-09-02 02:03:00,73.0,72.7,30.06,SE,135,0.0,0.0,99,0.00,,,0.00,pywws,2013-09-02 06:03:00,
2013-09-02 02:08:00,73.0,72.7,30.07,North,0,0.0,0.0,99,0.00,,,0.00,pywws,2013-09-02 06:08:00,
2013-09-02 02:13:00,72.9,72.6,30.06,North,0,0.0,0.0,99,0.00,,,0.00,pywws,2013-09-02 06:13:00,
2013-09-02 02:18:00,72.9,72.6,30.06,North,0,0.0,0.0,99,0.00,,,0.00,pywws,2013-09-02 06:18:00,
2013-09-02 02:23:00,72.9,72.6,30.06,North,0,0.0,0.0,99,0.00,,,0.00,pywws,2013-09-02 06:23:00,
2013-09-02 02:33:00,72.9,72.6,30.06,North,0,0.0,0.0,99,0.00,,,0.00,pywws,2013-09-02 06:33:00,
2013-09-02 02:38:00,73.0,72.7,30.06,North,0,0.0,0.0,99,0.00,,,0.00,pywws,2013-09-02 06:38:00,
2013-09-02 02:43:00,72.9,72.6,30.06,North,0,0.0,0.0,99,0.00,,,0.00,pywws,2013-09-02 06:43:00,
2013-09-02 02:48:00,72.9,72.6,30.07,North,0,0.0,0.0,99,0.00,,,0.00,pywws,2013-09-02 06:48:00,
2013-09-02 02:53:00,72.9,72.6,30.07,North,0,0.0,0.0,99,0.00,,,0.00,pywws,2013-09-02 06:53:00,
2013-09-02 03:03:00,72.9,72.6,30.07,North,0,0.0,0.0,99,0.00,,,0.00,pywws,2013-09-02 07:03:00,
2013-09-02 03:07:00,72.9,72.6,30.06,SE,135,0.0,0.0,99,0.00,,,0.00,pywws,2013-09-02 07:07:00,
2013-09-02 03:12:00,72.9,72.6,30.06,SE,135,0.0,0.0,99,0.00,,,0.00,pywws,2013-09-02 07:12:00,
2013-09-02 03:17:00,72.9,72.6,30.06,South,180,0.0,0.0,99,0.00,,,0.00,pywws,2013-09-02 07:17:00,
2013-09-02 03:22:00,72.7,72.4,30.06,South,180,0.0,0.0,99,0.00,,,0.00,pywws,2013-09-02 07:22:00,
2013-09-02 03:33:00,72.7,72.4,30.07,West,270,0.0,0.0,99,0.00,,,0.00,pywws,2013-09-02 07:33:00,
2013-09-02 03:38:00,72.7,72.4,30.07,West,270,0.0,0.0,99,0.00,,,0.00,pywws,2013-09-02 07:38:00,
2013-09-02 03:43:00,72.5,72.2,30.07,West,270,0.0,0.0,99,0.00,,,0.00,pywws,2013-09-02 07:43:00,
2013-09-02 03:48:00,72.5,72.2,30.06,West,270,0.0,0.0,99,0.00,,,0.00,pywws,2013-09-02 07:48:00,
2013-09-02 03:53:00,72.5,72.2,30.06,West,270,0.0,0.0,99,0.00,,,0.00,pywws,2013-09-02 07:53:00,
2013-09-02 04:03:00,72.5,72.2,30.06,SE,135,0.0,0.0,99,0.00,,,0.00,pywws,2013-09-02 08:03:00,
2013-09-02 04:08:00,72.5,72.2,30.06,SE,135,0.0,0.0,99,0.00,,,0.00,pywws,2013-09-02 08:08:00,
2013-09-02 04:13:00,72.3,72.0,30.07,SW,225,0.0,0.0,99,0.00,,,0.00,pywws,2013-09-02 08:13:00,
2013-09-02 04:18:00,72.3,72.0,30.07,SW,225,0.0,0.0,99,0.00,,,0.00,pywws,2013-09-02 08:18:00,
2013-09-02 04:23:00,72.3,72.0,30.07,SW,225,0.0,0.0,99,0.00,,,0.00,pywws,2013-09-02 08:23:00,
2013-09-02 04:33:00,72.1,71.8,30.07,SW,225,0.0,0.0,99,0.00,,,0.00,pywws,2013-09-02 08:33:00,
2013-09-02 04:38:00,72.1,71.8,30.06,NW,315,0.0,0.0,99,0.00,,,0.00,pywws,2013-09-02 08:38:00,
2013-09-02 04:43:00,72.0,71.7,30.06,NW,315,0.0,0.0,99,0.00,,,0.00,pywws,2013-09-02 08:43:00,
2013-09-02 04:48:00,72.0,71.7,30.06,SE,135,0.0,0.0,99,0.00,,,0.00,pywws,2013-09-02 08:48:00,
2013-09-02 04:53:00,72.0,71.7,30.06,South,180,0.0,0.0,99,0.00,,,0.00,pywws,2013-09-02 08:53:00,
2013-09-02 05:03:00,71.8,71.5,30.07,South,180,0.0,0.0,99,0.00,,,0.00,pywws,2013-09-02 09:03:00,
2013-09-02 05:08:00,71.8,71.5,30.07,West,270,0.0,0.0,99,0.00,,,0.00,pywws,2013-09-02 09:08:00,
2013-09-02 05:13:00,71.8,71.5,30.07,SW,225,0.0,0.0,99,0.00,,,0.00,pywws,2013-09-02 09:13:00,
2013-09-02 05:18:00,71.8,71.5,30.06,SW,225,0.0,0.0,99,0.00,,,0.00,pywws,2013-09-02 09:18:00,
2013-09-02 05:23:00,71.6,71.3,30.06,NE,45,0.0,0.0,99,0.00,,,0.00,pywws,2013-09-02 09:23:00,
2013-09-02 05:33:00,71.6,71.3,30.06,NE,45,0.0,0.0,99,0.00,,,0.00,pywws,2013-09-02 09:33:00,
2013-09-02 05:38:00,71.4,71.1,30.06,NW,315,0.0,0.0,99,0.00,,,0.00,pywws,2013-09-02 09:38:00,
2013-09-02 05:43:00,71.4,71.1,30.06,SE,135,0.0,0.0,99,0.00,,,0.00,pywws,2013-09-02 09:43:00,
2013-09-02 05:48:00,71.4,71.1,30.06,SE,135,0.0,0.0,99,0.00,,,0.00,pywws,2013-09-02 09:48:00,
2013-09-02 05:53:00,71.4,71.1,30.06,SE,135,0.0,0.0,99,0.01,,,0.01,pywws,2013-09-02 09:53:00,
2013-09-02 06:03:00,71.4,71.1,30.06,SE,135,0.0,0.0,99,0.01,,,0.01,pywws,2013-09-02 10:03:00,
2013-09-02 06:08:00,71.2,70.9,30.05,SE,135,0.0,0.0,99,0.01,,,0.01,pywws,2013-09-02 10:08:00,
2013-09-02 06:13:00,71.2,70.9,30.05,SE,135,0.0,0.0,99,0.01,,,0.01,pywws,2013-09-02 10:13:00,
2013-09-02 06:18:00,71.2,70.9,30.05,SE,135,0.0,0.0,99,0.01,,,0.01,pywws,2013-09-02 10:18:00,
2013-09-02 06:23:00,71.1,70.8,30.05,NE,45,0.0,0.0,99,0.01,,,0.01,pywws,2013-09-02 10:23:00,
2013-09-02 06:33:00,71.1,70.8,30.05,NE,45,0.0,0.0,99,0.01,,,0.01,pywws,2013-09-02 10:33:00,
2013-09-02 06:38:00,70.9,70.6,30.05,NE,45,0.0,0.0,99,0.01,,,0.01,pywws,2013-09-02 10:38:00,
2013-09-02 06:43:00,70.9,70.6,30.05,NE,45,0.0,0.0,99,0.01,,,0.01,pywws,2013-09-02 10:43:00,
2013-09-02 06:48:00,70.9,70.6,30.05,NE,45,0.0,0.0,99,0.01,,,0.01,pywws,2013-09-02 10:48:00,
2013-09-02 06:53:00,70.7,70.4,30.05,South,180,0.0,0.0,99,0.00,,,0.01,pywws,2013-09-02 10:53:00,
2013-09-02 07:03:00,70.7,70.4,30.04,NE,45,0.0,0.0,99,0.00,,,0.01,pywws,2013-09-02 11:03:00,
2013-09-02 07:08:00,70.9,70.6,30.04,SE,135,0.0,0.0,99,0.00,,,0.01,pywws,2013-09-02 11:08:00,
2013-09-02 07:13:00,70.7,70.4,30.04,NE,45,0.0,0.0,99,0.00,,,0.01,pywws,2013-09-02 11:13:00,
2013-09-02 07:18:00,70.7,70.4,30.03,South,180,0.0,0.0,99,0.00,,,0.01,pywws,2013-09-02 11:18:00,
2013-09-02 07:23:00,70.9,70.6,30.03,South,180,0.0,0.0,99,0.00,,,0.01,pywws,2013-09-02 11:23:00,
2013-09-02 07:33:00,70.9,70.6,30.03,South,180,0.0,0.0,99,0.00,,,0.01,pywws,2013-09-02 11:33:00,
2013-09-02 07:37:00,70.9,70.6,30.03,East,90,0.0,0.0,99,0.00,,,0.01,pywws,2013-09-02 11:37:00,
2013-09-02 07:42:00,70.9,70.6,30.02,SE,135,0.0,0.0,99,0.00,,,0.01,pywws,2013-09-02 11:42:00,
2013-09-02 07:47:00,71.1,70.8,30.02,SE,135,0.0,0.0,99,0.00,,,0.01,pywws,2013-09-02 11:47:00,
2013-09-02 07:52:00,71.1,70.8,30.01,NE,45,0.0,0.0,99,0.00,,,0.01,pywws,2013-09-02 11:52:00,
2013-09-02 08:03:00,71.2,70.9,30.01,NE,45,0.0,0.0,99,0.00,,,0.01,pywws,2013-09-02 12:03:00,
2013-09-02 08:08:00,71.6,71.3,30.00,NW,315,0.0,0.0,99,0.00,,,0.01,pywws,2013-09-02 12:08:00,
2013-09-02 08:13:00,71.6,71.3,30.00,NW,315,0.0,0.0,99,0.00,,,0.01,pywws,2013-09-02 12:13:00,
2013-09-02 08:18:00,71.8,71.5,30.00,West,270,0.7,1.6,99,0.00,,,0.01,pywws,2013-09-02 12:18:00,
2013-09-02 08:23:00,72.0,71.7,30.00,West,270,0.7,3.8,99,0.00,,,0.01,pywws,2013-09-02 12:23:00,
2013-09-02 08:33:00,72.3,72.0,29.99,South,180,0.0,2.2,99,0.00,,,0.01,pywws,2013-09-02 12:33:00,
2013-09-02 08:38:00,72.7,72.4,29.99,North,0,0.0,0.7,99,0.00,,,0.01,pywws,2013-09-02 12:38:00,
2013-09-02 08:43:00,72.9,72.6,29.99,West,270,1.6,3.1,99,0.00,,,0.01,pywws,2013-09-02 12:43:00,
2013-09-02 08:48:00,73.0,72.7,29.98,North,0,0.0,0.7,99,0.00,,,0.01,pywws,2013-09-02 12:48:00,
2013-09-02 08:53:00,73.2,72.9,29.98,West,270,0.7,1.6,99,0.00,,,0.01,pywws,2013-09-02 12:53:00,
2013-09-02 09:03:00,73.8,73.5,29.98,West,270,0.0,0.7,99,0.00,,,0.01,pywws,2013-09-02 13:03:00,
2013-09-02 09:08:00,74.1,73.8,29.97,SW,225,0.0,0.0,99,0.00,,,0.01,pywws,2013-09-02 13:08:00,
2013-09-02 09:13:00,74.8,74.5,29.97,SW,225,0.7,2.2,99,0.00,,,0.01,pywws,2013-09-02 13:13:00,
2013-09-02 09:18:00,75.4,75.1,29.97,South,180,0.0,1.6,99,0.00,,,0.01,pywws,2013-09-02 13:18:00,
2013-09-02 09:23:00,75.9,75.6,29.96,West,270,1.6,3.1,99,0.00,,,0.01,pywws,2013-09-02 13:23:00,
2013-09-02 09:33:00,76.5,75.9,29.96,West,270,1.6,3.1,98,0.00,,,0.01,pywws,2013-09-02 13:33:00,
2013-09-02 09:38:00,77.5,75.7,29.96,SW,225,1.6,2.2,94,0.00,,,0.01,pywws,2013-09-02 13:38:00,
2013-09-02 09:43:00,77.9,75.1,29.96,South,180,0.7,2.2,91,0.00,,,0.01,pywws,2013-09-02 13:43:00,
2013-09-02 09:48:00,78.1,74.9,29.95,South,180,1.6,4.5,90,0.00,,,0.01,pywws,2013-09-02 13:48:00,
2013-09-02 09:53:00,77.9,74.4,29.95,West,270,1.6,3.1,89,0.00,,,0.01,pywws,2013-09-02 13:53:00,
2013-09-02 10:03:00,77.9,74.7,29.95,West,270,1.6,2.2,90,0.00,,,0.01,pywws,2013-09-02 14:03:00,
2013-09-02 10:08:00,77.7,74.2,29.95,NW,315,0.0,1.6,89,0.00,,,0.01,pywws,2013-09-02 14:08:00,
2013-09-02 10:13:00,77.9,74.7,29.94,WNW,292,0.7,1.6,90,0.00,,,0.01,pywws,2013-09-02 14:13:00,
2013-09-02 10:18:00,77.9,74.4,29.94,SW,225,1.6,3.8,89,0.00,,,0.01,pywws,2013-09-02 14:18:00,
2013-09-02 10:23:00,78.4,74.6,29.94,West,270,3.1,4.5,88,0.00,,,0.01,pywws,2013-09-02 14:23:00,
2013-09-02 10:33:00,79.2,75.6,29.94,West,270,0.0,0.7,89,0.00,,,0.01,pywws,2013-09-02 14:33:00,
2013-09-02 10:37:00,80.4,74.8,29.94,NW,315,3.1,4.5,83,0.00,,,0.01,pywws,2013-09-02 14:37:00,
2013-09-02 10:42:00,81.0,75.3,29.93,SW,225,2.2,3.8,83,0.00,,,0.01,pywws,2013-09-02 14:42:00,
2013-09-02 10:47:00,81.3,75.6,29.93,SW,225,0.7,1.6,83,0.00,,,0.01,pywws,2013-09-02 14:47:00,
2013-09-02 10:52:00,81.5,74.7,29.93,South,180,1.6,3.8,80,0.00,,,0.01,pywws,2013-09-02 14:52:00,
2013-09-02 11:03:00,81.9,75.8,29.93,South,180,0.0,1.6,82,0.00,,,0.01,pywws,2013-09-02 15:03:00,
2013-09-02 11:08:00,84.6,77.3,29.93,West,270,1.6,3.1,79,0.00,,,0.01,pywws,2013-09-02 15:08:00,
2013-09-02 11:13:00,85.1,75.9,29.92,South,180,1.6,3.8,74,0.00,,,0.01,pywws,2013-09-02 15:13:00,
2013-09-02 11:18:00,85.5,76.6,29.92,East,90,0.7,1.6,75,0.00,,,0.01,pywws,2013-09-02 15:18:00,
2013-09-02 11:23:00,86.4,76.7,29.92,West,270,2.2,3.1,73,0.00,,,0.01,pywws,2013-09-02 15:23:00,
2013-09-02 11:33:00,87.3,77.5,29.91,NW,315,0.0,0.7,73,0.00,,,0.01,pywws,2013-09-02 15:33:00,
2013-09-02 11:38:00,88.2,76.7,29.91,ENE,68,0.0,2.2,69,0.00,,,0.01,pywws,2013-09-02 15:38:00,
2013-09-02 11:43:00,88.2,76.7,29.91,South,180,0.0,0.7,69,0.00,,,0.01,pywws,2013-09-02 15:43:00,
2013-09-02 11:48:00,89.1,76.6,29.91,West,270,1.6,4.5,67,0.00,,,0.01,pywws,2013-09-02 15:48:00,
2013-09-02 11:53:00,88.2,75.8,29.90,SW,225,0.0,1.6,67,0.00,,,0.01,pywws,2013-09-02 15:53:00,
2013-09-02 12:03:00,88.7,77.2,29.90,SE,135,0.7,1.6,69,0.00,,,0.01,pywws,2013-09-02 16:03:00,
2013-09-02 12:08:00,89.1,77.1,29.89,WSW,248,2.2,4.5,68,0.00,,,0.01,pywws,2013-09-02 16:08:00,
2013-09-02 12:13:00,88.5,76.6,29.89,ENE,68,0.7,1.6,68,0.00,,,0.01,pywws,2013-09-02 16:13:00,
2013-09-02 12:18:00,88.9,77.4,29.89,South,180,1.6,3.1,69,0.00,,,0.01,pywws,2013-09-02 16:18:00,
2013-09-02 12:23:00,89.4,77.4,29.89,West,270,0.0,1.6,68,0.00,,,0.01,pywws,2013-09-02 16:23:00,
2013-09-02 12:33:00,89.4,77.0,29.88,North,0,0.7,2.2,67,0.00,,,0.01,pywws,2013-09-02 16:33:00,
2013-09-02 12:37:00,89.1,76.6,29.88,SW,225,0.7,1.6,67,0.00,,,0.01,pywws,2013-09-02 16:37:00,
2013-09-02 12:42:00,89.2,77.3,29.88,SW,225,0.7,3.1,68,0.00,,,0.01,pywws,2013-09-02 16:42:00,
2013-09-02 12:47:00,89.4,77.0,29.89,West,270,1.6,3.1,67,0.00,,,0.01,pywws,2013-09-02 16:47:00,
2013-09-02 12:52:00,89.8,77.3,29.89,West,270,0.7,3.1,67,0.00,,,0.01,pywws,2013-09-02 16:52:00,
2013-09-02 13:03:00,89.6,76.7,29.89,WSW,248,1.6,2.2,66,0.00,,,0.01,pywws,2013-09-02 17:03:00,
2013-09-02 13:08:00,88.7,76.7,29.90,SE,135,0.7,1.6,68,0.00,,,0.01,pywws,2013-09-02 17:08:00,
2013-09-02 13:13:00,89.1,76.6,29.90,North,0,1.6,3.1,67,0.00,,,0.01,pywws,2013-09-02 17:13:00,
2013-09-02 13:18:00,89.2,76.4,29.90,South,180,0.7,2.2,66,0.00,,,0.01,pywws,2013-09-02 17:18:00,
2013-09-02 13:23:00,89.6,75.8,29.89,West,270,0.7,2.2,64,0.00,,,0.01,pywws,2013-09-02 17:23:00,
2013-09-02 13:33:00,89.2,75.0,29.89,East,90,2.2,4.5,63,0.00,,,0.01,pywws,2013-09-02 17:33:00,
2013-09-02 13:38:00,89.2,76.4,29.89,NW,315,0.7,2.2,66,0.00,,,0.01,pywws,2013-09-02 17:38:00,
2013-09-02 13:43:00,89.6,75.3,29.89,West,270,3.1,4.5,63,0.00,,,0.01,pywws,2013-09-02 17:43:00,
2013-09-02 13:48:00,89.2,74.5,29.89,West,270,2.2,4.5,62,0.00,,,0.01,pywws,2013-09-02 17:48:00,
2013-09-02 13:53:00,89.1,74.8,29.90,SW,225,2.2,3.8,63,0.00,,,0.01,pywws,2013-09-02 17:53:00,
2013-09-02 14:03:00,89.8,75.5,29.90,South,180,0.7,3.1,63,0.00,,,0.01,pywws,2013-09-02 18:03:00,
2013-09-02 14:08:00,90.3,75.0,29.91,West,270,1.6,3.1,61,0.00,,,0.01,pywws,2013-09-02 18:08:00,
2013-09-02 14:13:00,90.3,74.5,29.90,SW,225,1.6,3.1,60,0.00,,,0.01,pywws,2013-09-02 18:13:00,
2013-09-02 14:18:00,90.3,75.0,29.90,South,180,2.2,3.8,61,0.00,,,0.01,pywws,2013-09-02 18:18:00,
2013-09-02 14:23:00,91.6,75.7,29.90,West,270,1.6,3.8,60,0.00,,,0.01,pywws,2013-09-02 18:23:00,
2013-09-02 14:33:00,92.3,75.9,29.90,NW,315,2.2,3.1,59,0.00,,,0.01,pywws,2013-09-02 18:33:00,
2013-09-02 14:37:00,92.1,75.7,29.91,East,90,1.6,2.2,59,0.00,,,0.01,pywws,2013-09-02 18:37:00,
2013-09-02 14:42:00,91.8,75.4,29.91,West,270,0.7,3.1,59,0.00,,,0.01,pywws,2013-09-02 18:42:00,
2013-09-02 14:47:00,91.4,75.5,29.91,SW,225,0.7,2.2,60,0.00,,,0.01,pywws,2013-09-02 18:47:00,
2013-09-02 14:52:00,90.9,76.0,29.91,North,0,0.7,2.2,62,0.00,,,0.01,pywws,2013-09-02 18:52:00,
2013-09-02 15:03:00,91.6,76.2,29.91,South,180,0.7,1.6,61,0.00,,,0.01,pywws,2013-09-02 19:03:00,
2013-09-02 15:08:00,91.2,75.9,29.91,NW,315,0.0,0.7,61,0.00,,,0.01,pywws,2013-09-02 19:08:00,
2013-09-02 15:13:00,91.9,75.5,29.91,North,0,1.6,3.8,59,0.00,,,0.01,pywws,2013-09-02 19:13:00,
2013-09-02 15:18:00,91.6,75.2,29.91,SE,135,2.2,3.8,59,0.00,,,0.01,pywws,2013-09-02 19:18:00,
2013-09-02 15:23:00,91.2,74.8,29.91,West,270,1.6,3.1,59,0.00,,,0.01,pywws,2013-09-02 19:23:00,
2013-09-02 15:33:00,91.2,75.4,29.92,SW,225,0.0,1.6,60,0.00,,,0.01,pywws,2013-09-02 19:33:00,
2013-09-02 15:37:00,90.3,75.5,29.92,West,270,0.0,2.2,62,0.00,,,0.01,pywws,2013-09-02 19:37:00,
2013-09-02 15:42:00,90.0,75.2,29.91,SW,225,1.6,3.1,62,0.00,,,0.01,pywws,2013-09-02 19:42:00,
2013-09-02 15:47:00,89.6,75.3,29.91,North,0,0.7,2.2,63,0.00,,,0.01,pywws,2013-09-02 19:47:00,
2013-09-02 15:52:00,90.1,76.3,29.91,West,270,0.0,2.2,64,0.00,,,0.01,pywws,2013-09-02 19:52:00,
2013-09-02 16:03:00,89.8,75.5,29.91,South,180,0.7,2.2,63,0.00,,,0.01,pywws,2013-09-02 20:03:00,
2013-09-02 16:07:00,90.0,76.1,29.92,South,180,0.0,1.6,64,0.00,,,0.01,pywws,2013-09-02 20:07:00,
2013-09-02 16:12:00,90.0,75.6,29.93,West,270,1.6,3.1,63,0.00,,,0.01,pywws,2013-09-02 20:12:00,
2013-09-02 16:17:00,89.6,75.3,29.92,SE,135,1.6,3.8,63,0.00,,,0.01,pywws,2013-09-02 20:17:00,
2013-09-02 16:22:00,89.2,75.0,29.92,NW,315,0.7,2.2,63,0.00,,,0.01,pywws,2013-09-02 20:22:00,
2013-09-02 16:33:00,89.2,75.9,29.91,South,180,0.7,2.2,65,0.00,,,0.01,pywws,2013-09-02 20:33:00,
2013-09-02 16:37:00,89.4,75.6,29.92,South,180,0.7,2.2,64,0.00,,,0.01,pywws,2013-09-02 20:37:00,
2013-09-02 16:42:00,89.6,75.8,29.92,North,0,0.7,3.1,64,0.00,,,0.01,pywws,2013-09-02 20:42:00,
2013-09-02 16:47:00,89.2,75.0,29.92,West,270,1.6,3.1,63,0.00,,,0.01,pywws,2013-09-02 20:47:00,
2013-09-02 16:52:00,89.2,75.4,29.93,SE,135,0.0,0.7,64,0.00,,,0.01,pywws,2013-09-02 20:52:00,
2013-09-02 17:03:00,89.4,75.6,29.93,NW,315,0.7,2.2,64,0.00,,,0.01,pywws,2013-09-02 21:03:00,
2013-09-02 17:08:00,89.8,75.9,29.92,West,270,1.6,3.1,64,0.00,,,0.01,pywws,2013-09-02 21:08:00,
2013-09-02 17:13:00,90.1,75.3,29.91,SW,225,0.7,2.2,62,0.00,,,0.01,pywws,2013-09-02 21:13:00,
2013-09-02 17:18:00,90.5,76.1,29.91,WSW,248,0.7,2.2,63,0.00,,,0.01,pywws,2013-09-02 21:18:00,
2013-09-02 17:23:00,90.0,75.2,29.91,SE,135,0.7,3.1,62,0.00,,,0.01,pywws,2013-09-02 21:23:00,
2013-09-02 17:33:00,89.8,75.5,29.92,SW,225,0.7,1.6,63,0.00,,,0.01,pywws,2013-09-02 21:33:00,
2013-09-02 17:37:00,89.8,75.5,29.93,West,270,1.6,3.1,63,0.00,,,0.01,pywws,2013-09-02 21:37:00,
2013-09-02 17:42:00,89.8,75.9,29.93,SW,225,0.0,1.6,64,0.00,,,0.01,pywws,2013-09-02 21:42:00,
2013-09-02 17:47:00,89.6,75.8,29.93,South,180,1.6,3.1,64,0.00,,,0.01,pywws,2013-09-02 21:47:00,
2013-09-02 17:52:00,89.1,75.7,29.93,SE,135,2.2,4.5,65,0.00,,,0.01,pywws,2013-09-02 21:52:00,
2013-09-02 18:03:00,88.9,75.6,29.93,SE,135,1.6,3.8,65,0.00,,,0.01,pywws,2013-09-02 22:03:00,
2013-09-02 18:07:00,88.2,75.8,29.92,South,180,1.6,3.1,67,0.00,,,0.01,pywws,2013-09-02 22:07:00,
2013-09-02 18:12:00,88.2,75.3,29.93,SW,225,1.6,3.1,66,0.00,,,0.01,pywws,2013-09-02 22:12:00,
2013-09-02 18:17:00,88.2,75.8,29.93,SSE,158,0.0,0.7,67,0.00,,,0.01,pywws,2013-09-02 22:17:00,
2013-09-02 18:22:00,88.3,76.0,29.93,NE,45,0.7,2.2,67,0.00,,,0.01,pywws,2013-09-02 22:22:00,
2013-09-02 18:33:00,88.2,75.8,29.93,North,0,0.0,1.6,67,0.00,,,0.01,pywws,2013-09-02 22:33:00,
2013-09-02 18:38:00,87.1,76.1,29.92,South,180,0.7,3.1,70,0.00,,,0.01,pywws,2013-09-02 22:38:00,
2013-09-02 18:43:00,86.9,76.3,29.92,West,270,0.7,1.6,71,0.00,,,0.01,pywws,2013-09-02 22:43:00,
2013-09-02 18:48:00,86.7,76.6,29.92,North,0,0.7,3.1,72,0.00,,,0.01,pywws,2013-09-02 22:48:00,
2013-09-02 18:53:00,86.2,76.5,29.93,South,180,2.2,3.8,73,0.00,,,0.01,pywws,2013-09-02 22:53:00,
2013-09-02 19:03:00,85.3,75.6,29.93,South,180,3.1,4.5,73,0.00,,,0.01,pywws,2013-09-02 23:03:00,
2013-09-02 19:07:00,83.1,74.4,29.93,SW,225,1.6,3.1,75,0.00,,,0.01,pywws,2013-09-02 23:07:00,
2013-09-02 19:12:00,82.8,74.4,29.92,South,180,0.0,1.6,76,0.00,,,0.01,pywws,2013-09-02 23:12:00,
2013-09-02 19:17:00,82.4,74.4,29.92,South,180,1.6,3.1,77,0.00,,,0.01,pywws,2013-09-02 23:17:00,
2013-09-02 19:22:00,82.0,74.5,29.93,SW,225,0.7,2.2,78,0.00,,,0.01,pywws,2013-09-02 23:22:00,
2013-09-02 19:33:00,81.7,74.1,29.93,West,270,0.7,2.2,78,0.00,,,0.01,pywws,2013-09-02 23:33:00,
2013-09-02 19:37:00,81.0,73.8,29.93,SE,135,0.7,1.6,79,0.00,,,0.01,pywws,2013-09-02 23:37:00,
2013-09-02 19:42:00,80.6,73.8,29.93,SSE,158,0.7,2.2,80,0.00,,,0.01,pywws,2013-09-02 23:42:00,
2013-09-02 19:47:00,80.2,73.5,29.92,SE,135,1.6,3.1,80,0.00,,,0.01,pywws,2013-09-02 23:47:00,
2013-09-02 19:52:00,80.1,73.3,29.92,South,180,0.0,1.6,80,0.00,,,0.01,pywws,2013-09-02 23:52:00,
2013-09-02 20:03:00,79.9,73.5,29.93,SE,135,0.7,2.2,81,0.00,,,0.01,pywws,2013-09-03 00:03:00,
2013-09-02 20:07:00,79.2,73.2,29.93,SE,135,0.7,2.2,82,0.00,,,0.01,pywws,2013-09-03 00:07:00,
2013-09-02 20:12:00,79.3,73.4,29.93,South,180,0.0,0.7,82,0.00,,,0.01,pywws,2013-09-03 00:12:00,
2013-09-02 20:17:00,79.2,73.5,29.92,South,180,0.7,1.6,83,0.00,,,0.01,pywws,2013-09-03 00:17:00,
2013-09-02 20:22:00,78.8,73.2,29.93,South,180,0.7,2.2,83,0.00,,,0.01,pywws,2013-09-03 00:22:00,
2013-09-02 20:33:00,78.8,73.5,29.93,South,180,0.7,2.2,84,0.00,,,0.01,pywws,2013-09-03 00:33:00,
2013-09-02 20:37:00,78.6,73.4,29.93,South,180,0.7,1.6,84,0.00,,,0.01,pywws,2013-09-03 00:37:00,
2013-09-02 20:42:00,78.4,73.2,29.94,East,90,0.7,1.6,84,0.00,,,0.01,pywws,2013-09-03 00:42:00,
2013-09-02 20:47:00,78.3,73.0,29.94,NE,45,0.0,0.7,84,0.00,,,0.01,pywws,2013-09-03 00:47:00,
2013-09-02 20:52:00,78.3,73.4,29.95,SE,135,0.0,0.7,85,0.00,,,0.01,pywws,2013-09-03 00:52:00,
2013-09-02 21:03:00,77.9,73.0,29.95,South,180,0.0,1.6,85,0.00,,,0.01,pywws,2013-09-03 01:03:00,
2013-09-02 21:07:00,77.7,73.2,29.96,South,180,0.7,2.2,86,0.00,,,0.01,pywws,2013-09-03 01:07:00,
2013-09-02 21:12:00,77.5,73.4,29.96,SE,135,0.0,1.6,87,0.00,,,0.01,pywws,2013-09-03 01:12:00,
2013-09-02 21:17:00,77.5,73.4,29.97,SE,135,0.7,1.6,87,0.00,,,0.01,pywws,2013-09-03 01:17:00,
2013-09-02 21:22:00,77.5,73.4,29.97,SE,135,0.7,1.6,87,0.00,,,0.01,pywws,2013-09-03 01:22:00,
2013-09-02 21:33:00,77.5,73.4,29.98,South,180,0.7,1.6,87,0.00,,,0.01,pywws,2013-09-03 01:33:00,
2013-09-02 21:37:00,77.4,73.2,29.99,ENE,68,0.0,1.6,87,0.00,,,0.01,pywws,2013-09-03 01:37:00,
2013-09-02 21:42:00,77.0,73.2,29.99,South,180,0.0,1.6,88,0.00,,,0.01,pywws,2013-09-03 01:42:00,
2013-09-02 21:47:00,76.8,73.0,29.99,West,270,0.0,0.7,88,0.00,,,0.01,pywws,2013-09-03 01:47:00,
2013-09-02 21:52:00,76.8,73.0,30.00,East,90,0.0,1.6,88,0.00,,,0.01,pywws,2013-09-03 01:52:00,
2013-09-02 22:03:00,76.8,73.0,30.00,SE,135,0.7,1.6,88,0.00,,,0.01,pywws,2013-09-03 02:03:00,
2013-09-02 22:07:00,77.0,73.2,30.01,East,90,0.7,1.6,88,0.00,,,0.01,pywws,2013-09-03 02:07:00,
2013-09-02 22:12:00,77.0,73.2,30.01,South,180,0.0,0.0,88,0.00,,,0.01,pywws,2013-09-03 02:12:00,
2013-09-02 22:17:00,76.8,73.0,30.01,East,90,0.0,1.6,88,0.00,,,0.01,pywws,2013-09-03 02:17:00,
2013-09-02 22:22:00,76.8,73.0,30.01,SE,135,0.7,1.6,88,0.00,,,0.01,pywws,2013-09-03 02:22:00,
2013-09-02 22:33:00,76.6,72.8,30.02,SE,135,0.0,0.7,88,0.00,,,0.01,pywws,2013-09-03 02:33:00,
2013-09-02 22:37:00,76.5,72.6,30.03,SW,225,0.0,0.7,88,0.00,,,0.01,pywws,2013-09-03 02:37:00,
2013-09-02 22:42:00,76.3,72.8,30.03,SE,135,0.7,1.6,89,0.00,,,0.01,pywws,2013-09-03 02:42:00,
2013-09-02 22:47:00,76.3,72.8,30.04,South,180,0.7,1.6,89,0.00,,,0.01,pywws,2013-09-03 02:47:00,
2013-09-02 22:52:00,76.1,72.6,30.05,SE,135,0.7,1.6,89,0.00,,,0.01,pywws,2013-09-03 02:52:00,
2013-09-02 23:03:00,75.9,72.4,30.05,NW,315,0.0,0.7,89,0.00,,,0.01,pywws,2013-09-03 03:03:00,
2013-09-02 23:07:00,75.6,72.4,30.05,East,90,0.0,0.0,90,0.00,,,0.01,pywws,2013-09-03 03:07:00,
2013-09-02 23:12:00,75.4,72.2,30.05,SE,135,0.0,0.7,90,0.00,,,0.01,pywws,2013-09-03 03:12:00,
2013-09-02 23:17:00,75.6,72.7,30.05,NW,315,0.0,1.6,91,0.00,,,0.01,pywws,2013-09-03 03:17:00,
2013-09-02 23:22:00,75.6,72.4,30.05,SE,135,0.0,0.7,90,0.00,,,0.01,pywws,2013-09-03 03:22:00,
2013-09-02 23:33:00,75.4,72.6,30.05,NE,45,0.0,0.0,91,0.00,,,0.01,pywws,2013-09-03 03:33:00,
2013-09-02 23:37:00,75.4,72.6,30.05,East,90,0.0,1.6,91,0.00,,,0.01,pywws,2013-09-03 03:37:00,
2013-09-02 23:42:00,75.2,72.4,30.05,South,180,0.0,0.7,91,0.00,,,0.01,pywws,2013-09-03 03:42:00,
2013-09-02 23:47:00,75.4,72.6,30.05,SE,135,0.0,0.7,91,0.00,,,0.01,pywws,2013-09-03 03:47:00,
2013-09-02 23:52:00,75.4,72.6,30.05,SW,225,0.7,1.6,91,0.00,,,0.01,pywws,2013-09-03 03:52:00,